CheckWX is a tool to help pilots better visualize weather data.  It is not intended as a substitute for an official pre-flight weather briefing.

13:42:46 UTC

KDWX METAR
Dixon Airport
Dixon, Wyoming, USA
Current

33 mins ago

KDWX 201310Z AUTO 08012KT 10SM CLR 14/01 A3018 RMK AO2 T01370012
Observed
Jul-20 @ 13:10 UTC
Wind
  • 080° at 12 KTS
Visibility
10 SM
Flight Rules
VFR
Cloud Levels
  • Clear skies
Temperature
14°C / 57°F
Dewpoint
C / 34°F
Humidity
41%
Altimeter
30.18" Hg
Pressure
1022.02 hPa
Previous

53 mins ago

KDWX 201250Z AUTO 14007KT 10SM SCT110 13/01 A3018 RMK AO2 T01280008
Observed
Jul-20 @ 12:50 UTC
Wind
  • 140° at 7 KTS
Visibility
10 SM
Flight Rules
VFR
Cloud Levels
  • Scattered at 11,000' AGL
Temperature
13°C / 55°F
Dewpoint
C / 34°F
Humidity
44%
Altimeter
30.18" Hg
Pressure
1022.02 hPa
Previous

1 hour ago

KDWX 201230Z AUTO 19020G26KT 10SM CLR 14/00 A3020 RMK AO2 T01350000
Observed
Jul-20 @ 12:30 UTC
Wind
  • 190° at 20 KTS
  • Gusting to 26 KTS
Visibility
10 SM
Flight Rules
VFR
Cloud Levels
  • Clear skies
Temperature
14°C / 57°F
Dewpoint
C / 32°F
Humidity
39%
Altimeter
30.2" Hg
Pressure
1022.72 hPa